Lansing, Kansas
Current Conditions -  °F | °C
As of 4:53 AM on Monday 20 Oct 2014 (Local Time) from KMCI Reporting Station
Clear Clear  
Wind Chill: 11°   Ceiling: Unl
Heat Index: 11°   Visibility: 10mi
Dew Point:   Wind: 7mph
Humidity: 92%   Direction: 230°SW
Pressure: 29.98"   Gusts: NA
Location:  39.24°N, 94.9°W
Report Text: KMCI 200953Z 23006KT 10SM CLR 11/09 A2998 RMK AO2 SLP149 T01060094
Loading
Personal Weather Stations






























Interactive Weather Map
Tropical Storm Tracking
New forecast layout! Learn more

10-Day Weather Forecast

Advertisements
Track Severe Weather on mobile